Time;durP1;ratioP1;P1;durP2;ratioP2;P2;SDS_P1;SDS_P2;PMS_P1;PMS_P2;Temp;Humidity;BMP_temperature;BMP_pressure;BME280_temperature;BME280_humidity;BME280_pressure;Samples;Min_cycle;Max_cycle;Signal;HPM_P1;HPM_P2
2023/03/28 00:01:26;;;;;;;18.98;10.27;;;;;;;15.67;44.22;93376.47;4992732;28;20096;-87
2023/03/28 00:03:51;;;;;;;16.08;10.20;;;;;;;15.67;43.94;93376.47;5010646;28;20103;-87
2023/03/28 00:06:17;;;;;;;18.65;10.98;;;;;;;15.69;44.14;93372.03;4993509;28;20045;-87
2023/03/28 00:08:44;;;;;;;18.65;9.82;;;;;;;15.67;43.86;93371.78;4969555;28;20048;-87
2023/03/28 00:11:18;;;;;;;20.08;11.05;;;;;;;15.68;44.03;93369.78;4993907;28;20040;-87
2023/03/28 00:13:44;;;;;;;19.13;10.23;;;;;;;15.69;43.94;93377.47;4986459;28;20175;-87
2023/03/28 00:16:11;;;;;;;19.17;10.38;;;;;;;15.66;44.26;93383.91;4992528;28;20404;-86
2023/03/28 00:18:37;;;;;;;16.92;10.45;;;;;;;15.67;44.18;93381.94;4993328;28;20500;-87
2023/03/28 00:21:06;;;;;;;17.23;9.63;;;;;;;15.64;44.08;93389.09;5009793;28;20033;-86
2023/03/28 00:23:32;;;;;;;15.52;9.18;;;;;;;15.71;44.40;93385.91;5009113;28;20061;-87
2023/03/28 00:26:03;;;;;;;19.60;9.65;;;;;;;15.81;43.53;93391.09;4977664;28;20128;-87
2023/03/28 00:28:29;;;;;;;13.10;8.77;;;;;;;15.69;43.79;93388.38;5010889;28;20048;-87
2023/03/28 00:31:01;;;;;;;16.55;9.85;;;;;;;15.66;43.98;93388.63;4996251;28;20037;-87
2023/03/28 00:33:27;;;;;;;18.83;10.43;;;;;;;15.67;44.16;93395.56;4995601;28;20041;-87
2023/03/28 00:35:55;;;;;;;18.15;11.55;;;;;;;15.69;44.03;93399.28;5018452;28;20072;-87
2023/03/28 00:38:20;;;;;;;15.73;10.77;;;;;;;15.77;43.72;93405.75;4989167;28;20059;-87
2023/03/28 00:40:47;;;;;;;20.35;11.07;;;;;;;15.75;43.66;93402.00;5001928;28;20448;-86
2023/03/28 00:43:12;;;;;;;19.65;11.27;;;;;;;15.70;44.07;93403.50;5002553;28;20069;-87
2023/03/28 00:45:38;;;;;;;18.75;11.60;;;;;;;15.70;43.93;93417.13;4992793;28;20099;-87
2023/03/28 00:48:06;;;;;;;20.63;11.93;;;;;;;15.75;43.86;93415.66;4992545;28;20068;-87
2023/03/28 00:50:36;;;;;;;20.33;10.73;;;;;;;15.74;43.73;93412.16;5009040;28;20496;-87
2023/03/28 00:53:19;;;;;;;17.15;11.27;;;;;;;15.72;43.78;93408.44;4973184;28;20420;-86
2023/03/28 00:55:45;;;;;;;18.15;12.20;;;;;;;15.69;44.09;93409.44;4957576;28;20531;-87
2023/03/28 00:58:13;;;;;;;19.38;12.40;;;;;;;15.77;43.85;93415.91;5000461;28;20057;-87
2023/03/28 01:00:40;;;;;;;20.73;13.10;;;;;;;15.73;43.70;93410.69;5008375;28;20411;-87
2023/03/28 01:03:05;;;;;;;17.98;12.32;;;;;;;15.73;43.85;93405.22;4992803;28;20057;-87
2023/03/28 01:05:31;;;;;;;17.85;11.38;;;;;;;15.80;43.64;93406.00;4976772;28;20037;-87
2023/03/28 01:08:09;;;;;;;17.45;11.35;;;;;;;15.87;43.44;93411.69;4981395;28;20044;-87
2023/03/28 01:10:35;;;;;;;17.25;10.88;;;;;;;15.85;43.65;93427.03;5028385;28;20043;-86
2023/03/28 01:13:01;;;;;;;20.75;13.65;;;;;;;15.76;43.63;93411.69;4995379;28;20037;-87
2023/03/28 01:15:28;;;;;;;23.15;13.48;;;;;;;15.76;43.72;93408.97;4994956;28;20400;-87
2023/03/28 01:17:55;;;;;;;24.02;15.05;;;;;;;15.79;43.97;93409.97;4977405;28;20033;-87
2023/03/28 01:20:25;;;;;;;21.15;15.40;;;;;;;15.76;43.81;93406.97;4956615;28;20026;-87
2023/03/28 01:23:11;;;;;;;21.73;14.50;;;;;;;15.84;43.32;93415.38;5016612;28;20037;-87
2023/03/28 01:25:46;;;;;;;21.50;12.07;;;;;;;15.85;43.24;93422.34;5008537;28;20032;-87
2023/03/28 01:28:36;;;;;;;18.70;12.65;;;;;;;15.88;43.49;93413.16;4974974;28;20041;-87
2023/03/28 01:31:20;;;;;;;20.47;12.87;;;;;;;15.86;43.36;93410.19;5008836;28;20045;-86
2023/03/28 01:34:07;;;;;;;18.10;12.23;;;;;;;15.87;43.13;93421.84;5025677;28;20815;-87
2023/03/28 01:36:44;;;;;;;19.20;13.73;;;;;;;15.87;43.30;93427.28;5008080;28;20049;-87
2023/03/28 01:39:31;;;;;;;18.70;12.27;;;;;;;15.87;43.66;93427.28;5005197;28;20038;-86
2023/03/28 01:42:12;;;;;;;21.35;13.85;;;;;;;15.81;43.76;93438.19;5011090;28;20382;-87
2023/03/28 01:44:39;;;;;;;;;;;;;;;15.85;43.55;93440.66;5006096;28;20540;-87
2023/03/28 01:47:27;;;;;;;19.17;14.18;;;;;;;15.80;43.82;93433.25;5008192;28;20307;-87
2023/03/28 01:50:17;;;;;;;20.05;12.43;;;;;;;15.80;43.47;93428.53;4991747;28;20045;-87
2023/03/28 01:53:13;;;;;;;21.63;12.82;;;;;;;15.79;43.76;93437.97;5008376;28;20553;-87
2023/03/28 01:55:42;;;;;;;16.75;11.02;;;;;;;15.86;43.35;93429.28;5026088;28;20045;-87
2023/03/28 01:58:12;;;;;;;19.38;12.65;;;;;;;15.89;43.26;93441.19;4990226;28;20045;-87
2023/03/28 02:00:44;;;;;;;18.13;11.98;;;;;;;15.84;43.30;93444.63;4991388;28;20033;-87
2023/03/28 02:03:19;;;;;;;16.35;11.90;;;;;;;15.84;43.46;93439.19;4991543;28;20041;-87
2023/03/28 02:05:44;;;;;;;15.57;11.52;;;;;;;15.83;43.60;93446.63;4974925;28;20071;-87
2023/03/28 02:08:10;;;;;;;17.98;11.88;;;;;;;15.80;43.41;93446.88;4969802;28;20046;-87
2023/03/28 02:10:36;;;;;;;17.08;10.80;;;;;;;15.85;43.10;93441.41;4990317;28;20040;-87
2023/03/28 02:13:03;;;;;;;16.83;11.10;;;;;;;15.92;43.09;93445.66;4992034;28;20030;-87
2023/03/28 02:15:29;;;;;;;16.35;11.02;;;;;;;15.90;43.15;93448.88;4991339;28;20068;-87
2023/03/28 02:18:04;;;;;;;20.90;11.40;;;;;;;15.82;43.60;93453.31;4975508;28;20041;-86
2023/03/28 02:20:30;;;;;;;15.85;11.00;;;;;;;15.77;43.77;93443.16;5006754;28;20111;-87
2023/03/28 02:23:06;;;;;;;19.33;10.63;;;;;;;15.87;43.49;93443.66;4991798;28;20404;-87
2023/03/28 02:25:31;;;;;;;15.68;11.52;;;;;;;15.86;43.38;93450.34;4991046;28;20045;-87
2023/03/28 02:28:00;;;;;;;21.50;12.52;;;;;;;15.82;43.71;93447.09;4990762;28;20033;-87
2023/03/28 02:30:26;;;;;;;20.20;10.85;;;;;;;15.79;43.57;93451.59;5008000;28;20041;-87
2023/03/28 02:32:59;;;;;;;19.35;12.90;;;;;;;15.75;43.90;93453.78;4991718;28;20346;-87
2023/03/28 02:35:27;;;;;;;21.80;13.05;;;;;;;15.71;43.94;93451.31;4992244;28;20091;-86
2023/03/28 02:38:16;;;;;;;22.30;13.82;;;;;;;15.69;43.72;93459.22;4991567;28;20038;-87
2023/03/28 02:40:51;;;;;;;21.27;14.25;;;;;;;15.71;44.02;93456.75;5006650;28;20598;-87
2023/03/28 02:43:19;;;;;;;24.85;13.52;;;;;;;15.75;43.68;93460.00;5024540;28;20041;-87
2023/03/28 02:46:06;;;;;;;20.52;13.13;;;;;;;15.78;43.40;93463.72;5023972;28;20095;-87
2023/03/28 02:48:50;;;;;;;25.63;13.45;;;;;;;15.74;43.73;93465.94;5023372;28;20042;-87
2023/03/28 02:51:39;;;;;;;18.67;13.10;;;;;;;15.77;44.02;93464.97;5024045;28;20046;-87
2023/03/28 02:54:31;;;;;;;20.77;12.57;;;;;;;15.72;44.15;93466.44;4989634;28;20073;-87
2023/03/28 02:57:01;;;;;;;24.42;13.80;;;;;;;15.74;43.62;93463.22;5007274;28;20041;-87
2023/03/28 02:59:32;;;;;;;20.83;12.60;;;;;;;15.72;43.99;93463.69;5006901;28;20049;-87
2023/03/28 03:01:58;;;;;;;25.63;16.05;;;;;;;15.80;43.33;93461.25;4991536;28;20069;-87
2023/03/28 03:04:23;;;;;;;27.35;18.55;;;;;;;15.71;43.96;93464.94;4974153;28;20522;-87
2023/03/28 03:06:49;;;;;;;23.25;15.48;;;;;;;15.78;43.29;93469.16;4975248;28;20041;-87
2023/03/28 03:09:15;;;;;;;22.95;13.73;;;;;;;15.85;43.32;93470.66;4990103;28;20042;-86
2023/03/28 03:11:40;;;;;;;18.77;11.98;;;;;;;15.93;43.19;93468.94;4994291;28;20443;-87
2023/03/28 03:14:06;;;;;;;18.95;12.30;;;;;;;15.85;43.37;93467.94;4994092;28;20060;-87
2023/03/28 03:16:31;;;;;;;16.33;11.38;;;;;;;15.86;43.35;93475.63;4995571;28;20038;-86
2023/03/28 03:18:57;;;;;;;18.67;12.63;;;;;;;15.87;43.33;93477.09;5003927;28;20045;-87
2023/03/28 03:21:24;;;;;;;20.58;13.10;;;;;;;15.78;43.44;93477.34;5010225;28;20045;-86
2023/03/28 03:23:49;;;;;;;18.50;13.05;;;;;;;15.79;43.53;93478.84;5027410;28;20544;-87
2023/03/28 03:26:15;;;;;;;20.85;11.93;;;;;;;15.86;43.31;93472.16;4974345;28;20480;-87
2023/03/28 03:28:40;;;;;;;21.58;12.85;;;;;;;15.75;43.49;93481.06;5008706;28;20045;-87
2023/03/28 03:31:06;;;;;;;19.33;13.23;;;;;;;15.76;43.42;93477.09;5010109;28;20092;-87
2023/03/28 03:33:31;;;;;;;22.10;13.13;;;;;;;15.77;43.64;93478.59;4994259;28;20053;-87
2023/03/28 03:35:56;;;;;;;22.00;13.45;;;;;;;15.71;43.75;93486.00;4996119;28;20132;-87
2023/03/28 03:38:22;;;;;;;21.13;12.20;;;;;;;15.69;43.97;93489.19;5008997;28;20451;-86
2023/03/28 03:40:47;;;;;;;20.17;12.05;;;;;;;15.69;43.82;93477.56;5002587;28;20041;-88
2023/03/28 03:43:13;;;;;;;19.85;12.30;;;;;;;15.76;43.75;93485.28;4994083;28;20037;-88
2023/03/28 03:45:39;;;;;;;28.67;17.83;;;;;;;15.87;42.85;93496.19;4994664;28;20048;-88
2023/03/28 03:48:05;;;;;;;21.63;13.05;;;;;;;15.92;43.19;93500.16;4996752;28;20053;-88
2023/03/28 03:50:30;;;;;;;17.52;12.35;;;;;;;15.93;42.95;93505.13;4979885;28;20076;-87
2023/03/28 03:52:56;;;;;;;38.28;14.18;;;;;;;15.94;43.29;93506.63;4983280;28;20091;-87
2023/03/28 03:55:22;;;;;;;18.52;12.80;;;;;;;15.98;42.96;93509.84;4995294;28;20029;-86
2023/03/28 03:57:47;;;;;;;20.65;12.88;;;;;;;15.91;43.34;93512.31;4994290;28;20059;-88
2023/03/28 04:00:13;;;;;;;20.23;12.93;;;;;;;15.80;43.71;93507.59;4994677;28;20538;-88
2023/03/28 04:02:39;;;;;;;20.42;13.55;;;;;;;15.78;43.65;93501.88;4996609;28;20463;-87
2023/03/28 04:05:07;;;;;;;23.95;14.82;;;;;;;15.85;43.30;93511.53;5008590;28;20041;-87
2023/03/28 04:07:32;;;;;;;31.83;18.88;;;;;;;15.83;41.88;93520.22;4994312;28;20116;-88
2023/03/28 04:09:57;;;;;;;31.67;15.75;;;;;;;15.70;41.52;93526.13;5009694;28;20053;-88
2023/03/28 04:12:23;;;;;;;61.38;18.92;;;;;;;15.74;42.03;93526.63;5023872;28;20041;-88
2023/03/28 04:14:48;;;;;;;68.95;18.70;;;;;;;15.70;41.51;93517.19;4984366;28;20175;-87
2023/03/28 04:17:15;;;;;;;55.33;17.90;;;;;;;15.68;41.58;93514.22;4994134;28;20037;-88
2023/03/28 04:19:40;;;;;;;49.60;19.65;;;;;;;15.67;42.18;93524.38;5002516;28;20037;-88
2023/03/28 04:22:07;;;;;;;37.03;19.80;;;;;;;15.79;42.61;93522.44;5004797;28;20141;-88
2023/03/28 04:24:32;;;;;;;31.38;18.50;;;;;;;15.75;43.03;93533.59;5000298;28;20052;-88
2023/03/28 04:26:58;;;;;;;30.17;18.48;;;;;;;15.80;42.95;93529.38;4999882;28;20034;-89
2023/03/28 04:29:29;;;;;;;20.60;12.90;;;;;;;15.75;42.23;93530.84;4990210;28;20045;-90
2023/03/28 04:31:57;;;;;;;27.40;12.45;;;;;;;15.71;41.79;93540.50;4994221;28;20136;-89
2023/03/28 04:34:28;;;;;;;40.78;27.35;;;;;;;15.74;42.12;93537.53;5004059;28;20455;-90
2023/03/28 04:37:00;;;;;;;33.33;20.42;;;;;;;15.77;42.34;93538.53;4994319;28;20127;-90
2023/03/28 04:39:30;;;;;;;37.80;19.73;;;;;;;15.85;42.47;93541.53;5001802;28;20050;-91
2023/03/28 04:41:55;;;;;;;27.58;13.38;;;;;;;15.88;42.55;93548.72;4987505;28;20049;-88
2023/03/28 04:44:22;;;;;;;22.73;13.73;;;;;;;15.94;42.51;93554.94;5018502;28;20044;-90
2023/03/28 04:46:49;;;;;;;145.70;102.15;;;;;;;15.99;42.71;93552.25;4972630;28;20041;-87
2023/03/28 04:49:16;;;;;;;21.95;12.73;;;;;;;15.99;42.15;93546.06;4990249;28;20037;-90
2023/03/28 04:51:41;;;;;;;28.05;12.55;;;;;;;15.99;42.08;93552.25;4972907;28;20049;-89
2023/03/28 04:54:07;;;;;;;90.80;21.80;;;;;;;15.86;42.18;93551.94;4990939;28;20080;-88
2023/03/28 04:56:32;;;;;;;46.28;16.38;;;;;;;15.90;42.25;93568.81;5007800;28;20133;-89
2023/03/28 04:58:57;;;;;;;37.85;16.42;;;;;;;15.83;42.27;93558.38;4993365;28;20060;-88
2023/03/28 05:01:26;;;;;;;67.97;20.27;;;;;;;15.73;40.77;93557.09;4991317;28;20455;-87
2023/03/28 05:03:51;;;;;;;99.20;21.77;;;;;;;15.65;38.87;93566.97;4987881;28;20045;-89
2023/03/28 05:06:17;;;;;;;131.23;27.17;;;;;;;15.56;39.24;93559.03;4977594;28;20519;-88
2023/03/28 05:08:43;;;;;;;142.70;28.70;;;;;;;15.60;39.16;93565.72;4985088;28;20096;-88
2023/03/28 05:11:09;;;;;;;133.65;30.52;;;;;;;15.61;39.82;93564.47;5010101;28;20041;-88
2023/03/28 05:13:36;;;;;;;142.57;37.10;;;;;;;15.66;40.40;93571.19;4977618;28;20045;-89
2023/03/28 05:16:01;;;;;;;112.28;33.58;;;;;;;15.68;40.83;93576.91;5009014;28;20080;-89
2023/03/28 05:18:26;;;;;;;82.60;29.13;;;;;;;15.73;41.16;93565.28;4999760;28;20112;-88
2023/03/28 05:20:52;;;;;;;66.28;27.65;;;;;;;15.69;39.85;93581.13;4978512;28;20045;-87
2023/03/28 05:23:18;;;;;;;74.63;39.60;;;;;;;15.72;40.62;93580.16;4991095;28;20039;-89
2023/03/28 05:25:51;;;;;;;85.28;44.85;;;;;;;15.69;40.53;93573.69;4974222;28;20734;-88
2023/03/28 05:28:16;;;;;;;149.63;59.40;;;;;;;15.70;40.73;93582.59;4979158;28;20045;-87
2023/03/28 05:30:42;;;;;;;100.00;41.08;;;;;;;15.77;40.85;93574.72;5010966;28;20041;-90
2023/03/28 05:33:07;;;;;;;135.02;43.40;;;;;;;15.72;40.65;93580.88;5010243;28;20033;-89
2023/03/28 05:35:33;;;;;;;136.25;49.92;;;;;;;15.74;40.60;93581.16;4994624;28;20148;-91
2023/03/28 05:37:58;;;;;;;135.85;57.13;;;;;;;15.76;40.88;93580.66;5026028;28;20026;-88
2023/03/28 05:40:24;;;;;;;161.88;69.80;;;;;;;15.84;40.77;93583.66;4999577;28;20048;-91
2023/03/28 05:42:49;;;;;;;233.30;100.75;;;;;;;15.74;41.37;93588.56;5006460;28;20046;-88
2023/03/28 05:45:15;;;;;;;171.88;74.40;;;;;;;15.71;40.56;93598.47;5005949;28;20058;-89
2023/03/28 05:47:40;;;;;;;192.25;73.53;;;;;;;15.72;40.44;93599.22;5005290;28;20121;-88
2023/03/28 05:50:06;;;;;;;174.70;70.55;;;;;;;15.75;40.69;93599.00;4989795;28;20037;-90
2023/03/28 05:52:32;;;;;;;190.70;84.90;;;;;;;15.78;40.80;93591.81;5014392;28;20526;-88
2023/03/28 05:54:57;;;;;;;246.40;90.93;;;;;;;15.75;40.88;93600.97;5014927;28;20128;-89
2023/03/28 05:57:23;;;;;;;208.63;89.70;;;;;;;15.75;39.87;93598.25;5002669;28;20046;-92
2023/03/28 05:59:49;;;;;;;207.07;72.22;;;;;;;15.71;39.49;93603.94;5008182;28;20043;-88
2023/03/28 06:02:15;;;;;;;205.10;78.70;;;;;;;15.75;39.48;93600.97;5003385;28;20052;-86
2023/03/28 06:04:41;;;;;;;243.40;90.68;;;;;;;15.75;39.96;93609.91;4993647;28;20045;-88
2023/03/28 06:07:07;;;;;;;243.52;94.88;;;;;;;15.77;40.31;93601.97;5026534;28;20084;-87
2023/03/28 06:09:33;;;;;;;212.75;92.22;;;;;;;15.88;40.70;93603.25;5012831;28;20053;-89
2023/03/28 06:12:00;;;;;;;193.20;93.22;;;;;;;15.94;40.45;93610.22;5013545;28;20054;-86
2023/03/28 06:14:26;;;;;;;191.30;87.47;;;;;;;15.97;40.51;93611.22;5013000;28;20045;-90
2023/03/28 06:16:52;;;;;;;206.55;102.13;;;;;;;15.96;40.57;93620.66;4979066;28;20041;-88
2023/03/28 06:19:18;;;;;;;229.55;104.32;;;;;;;16.03;41.10;93611.97;5018127;28;20029;-89
2023/03/28 06:21:43;;;;;;;226.57;102.20;;;;;;;15.98;40.45;93613.47;4979355;28;20061;-89
2023/03/28 06:24:09;;;;;;;235.10;102.72;;;;;;;15.86;40.84;93620.09;5011041;28;20396;-88
2023/03/28 06:26:35;;;;;;;194.50;95.70;;;;;;;15.84;40.89;93619.09;4995163;28;20044;-89
2023/03/28 06:29:00;;;;;;;205.48;97.82;;;;;;;15.90;40.76;93617.88;5020046;28;20041;-90
2023/03/28 06:31:26;;;;;;;186.52;88.53;;;;;;;15.89;40.95;93619.13;5005247;28;20041;-90
2023/03/28 06:33:52;;;;;;;194.18;90.53;;;;;;;15.93;40.98;93618.88;5026712;28;20045;-90
2023/03/28 06:36:19;;;;;;;169.63;85.90;;;;;;;15.86;40.69;93627.53;5026235;28;20042;-89
2023/03/28 06:38:48;;;;;;;181.82;85.63;;;;;;;15.91;40.58;93621.34;5028478;28;20099;-88
2023/03/28 06:41:14;;;;;;;177.60;85.68;;;;;;;15.89;40.87;93626.56;5033045;28;20032;-90
2023/03/28 06:43:40;;;;;;;169.57;79.20;;;;;;;15.97;40.86;93631.06;5032734;28;20112;-89
2023/03/28 06:46:05;;;;;;;167.20;76.43;;;;;;;15.97;40.66;93633.03;5031375;28;20037;-88
2023/03/28 06:48:31;;;;;;;165.10;73.28;;;;;;;16.05;40.61;93634.06;5052329;28;20041;-89
2023/03/28 06:50:57;;;;;;;188.70;82.25;;;;;;;15.97;40.92;93639.25;5006059;28;20053;-90
2023/03/28 06:53:22;;;;;;;185.93;82.80;;;;;;;16.03;41.09;93633.78;4997172;28;20041;-89
2023/03/28 06:55:49;;;;;;;233.43;91.80;;;;;;;15.92;41.02;93644.66;5019627;28;20040;-89
2023/03/28 06:58:15;;;;;;;220.60;96.65;;;;;;;16.00;41.20;93638.25;5004152;28;20052;-88
2023/03/28 07:00:40;;;;;;;216.43;99.15;;;;;;;16.03;40.75;93650.91;5008270;28;20041;-89
2023/03/28 07:03:07;;;;;;;225.88;101.57;;;;;;;16.00;40.76;93653.88;5014450;28;20078;-90
2023/03/28 07:05:37;;;;;;;205.73;95.43;;;;;;;15.94;41.16;93656.56;5022840;28;20483;-90
2023/03/28 07:08:02;;;;;;;228.23;102.75;;;;;;;15.95;41.31;93657.31;5011086;28;20552;-90
2023/03/28 07:10:28;;;;;;;207.05;98.07;;;;;;;16.05;41.13;93664.03;5039380;28;20044;-91
2023/03/28 07:12:53;;;;;;;214.25;103.97;;;;;;;15.96;40.84;93667.00;5004378;28;20445;-89
2023/03/28 07:15:18;;;;;;;212.63;108.07;;;;;;;15.90;41.20;93664.22;5008557;28;20029;-88
2023/03/28 07:17:44;;;;;;;218.05;101.47;;;;;;;15.93;41.34;93676.88;5053223;28;20037;-89
2023/03/28 07:20:10;;;;;;;216.23;101.82;;;;;;;15.89;41.06;93681.81;5036229;28;20022;-89
2023/03/28 07:22:35;;;;;;;215.20;99.47;;;;;;;15.94;41.46;93666.72;5039304;28;20070;-88
2023/03/28 07:25:00;;;;;;;209.30;98.18;;;;;;;15.91;41.18;93678.59;5038736;28;20029;-88
2023/03/28 07:27:26;;;;;;;224.95;111.85;;;;;;;16.01;41.54;93671.72;5011838;28;20041;-92
2023/03/28 07:29:51;;;;;;;220.52;106.60;;;;;;;16.01;41.07;93669.75;4995340;28;20285;-89
2023/03/28 07:32:18;;;;;;;191.07;95.10;;;;;;;15.95;41.14;93681.84;5003454;28;20041;-89
2023/03/28 07:34:43;;;;;;;214.90;94.20;;;;;;;15.97;41.64;93688.31;5017598;28;20044;-90
2023/03/28 07:37:08;;;;;;;201.15;101.90;;;;;;;16.00;41.40;93695.53;4998922;28;20472;-87
2023/03/28 07:39:38;;;;;;;203.15;99.75;;;;;;;15.94;41.41;93694.75;4980423;28;20038;-90
2023/03/28 07:42:04;;;;;;;200.27;97.45;;;;;;;15.97;40.89;93701.19;5028809;28;20048;-87
2023/03/28 07:44:29;;;;;;;152.40;67.00;;;;;;;15.80;39.71;93703.09;4998424;28;20045;-88
2023/03/28 07:46:55;;;;;;;114.90;61.92;;;;;;;15.80;39.27;93698.38;5018141;28;20408;-88
2023/03/28 07:49:20;;;;;;;178.05;79.65;;;;;;;15.85;39.70;93702.34;5033185;28;20037;-88
2023/03/28 07:51:46;;;;;;;154.80;74.93;;;;;;;15.96;39.26;93699.72;4997560;28;20408;-88
2023/03/28 07:54:16;;;;;;;132.13;63.40;;;;;;;15.99;39.78;93704.19;4999978;28;20045;-87
2023/03/28 07:56:43;;;;;;;166.45;77.07;;;;;;;15.98;39.89;93713.59;5017682;28;20051;-88
2023/03/28 07:59:09;;;;;;;163.07;79.28;;;;;;;15.96;40.21;93711.38;5001794;28;20037;-90
2023/03/28 08:01:35;;;;;;;193.07;85.32;;;;;;;15.96;40.71;93716.06;5015209;28;20044;-88
2023/03/28 08:04:01;;;;;;;178.25;83.45;;;;;;;15.92;40.74;93705.38;5019735;28;20120;-88
2023/03/28 08:06:27;;;;;;;180.63;83.90;;;;;;;16.03;41.47;93716.34;5002751;28;20492;-89
2023/03/28 08:08:52;;;;;;;166.52;82.75;;;;;;;15.98;41.01;93724.50;5014495;28;20049;-89
2023/03/28 08:11:18;;;;;;;159.60;79.75;;;;;;;15.94;40.74;93719.28;5012977;28;20048;-89
2023/03/28 08:13:43;;;;;;;167.77;82.95;;;;;;;15.99;41.02;93726.00;5029986;28;20552;-89
2023/03/28 08:16:09;;;;;;;160.25;81.20;;;;;;;15.94;40.94;93724.72;5012302;28;20056;-87
2023/03/28 08:18:34;;;;;;;170.38;87.70;;;;;;;15.97;40.96;93723.75;5016600;28;20037;-89
2023/03/28 08:21:00;;;;;;;204.68;102.32;;;;;;;15.92;41.02;93719.03;5013838;28;20431;-89
2023/03/28 08:23:26;;;;;;;255.57;127.68;;;;;;;15.94;40.96;93722.00;5023834;28;20037;-90
2023/03/28 08:25:58;;;;;;;297.00;152.90;;;;;;;15.95;41.18;93739.84;4999549;28;20048;-91
2023/03/28 08:28:23;;;;;;;341.13;180.30;;;;;;;15.98;40.71;93751.78;5009212;28;20098;-90
2023/03/28 08:30:50;;;;;;;415.55;224.70;;;;;;;15.99;40.85;93740.38;5023236;28;20396;-89
2023/03/28 08:33:15;;;;;;;409.45;231.88;;;;;;;16.14;41.07;93747.66;5009499;28;20064;-88
2023/03/28 08:35:41;;;;;;;459.33;254.63;;;;;;;16.07;40.87;93748.84;5040044;28;20559;-89
2023/03/28 08:38:06;;;;;;;491.95;270.77;;;;;;;16.05;40.70;93756.75;5016671;28;20102;-88
2023/03/28 08:40:32;;;;;;;476.58;274.80;;;;;;;16.10;40.58;93756.78;4998447;28;20032;-89
2023/03/28 08:43:16;;;;;;;478.17;273.88;;;;;;;16.13;41.01;93748.88;5015710;28;20047;-89
2023/03/28 08:45:50;;;;;;;490.63;279.48;;;;;;;16.13;41.01;93754.34;5031675;28;20068;-89
2023/03/28 08:48:23;;;;;;;435.80;247.30;;;;;;;16.06;41.11;93760.97;4998950;28;20037;-90
2023/03/28 08:50:59;;;;;;;433.95;250.35;;;;;;;16.07;40.97;93762.47;5025199;28;20036;-89
2023/03/28 08:53:33;;;;;;;414.95;240.50;;;;;;;16.11;40.76;93766.47;5028486;28;20057;-88
2023/03/28 08:55:58;;;;;;;418.90;234.30;;;;;;;16.12;40.97;93748.13;4992442;28;20068;-89
2023/03/28 08:58:25;;;;;;;434.13;245.68;;;;;;;16.19;41.12;93764.03;5009548;28;20049;-88
2023/03/28 09:00:50;;;;;;;370.65;200.98;;;;;;;16.22;41.05;93757.63;4997233;28;20570;-88
2023/03/28 09:03:20;;;;;;;319.77;181.98;;;;;;;16.24;40.81;93765.31;5030456;28;20047;-89
2023/03/28 09:05:53;;;;;;;368.23;209.50;;;;;;;16.16;40.85;93767.75;5000349;28;20110;-89
2023/03/28 09:08:36;;;;;;;373.23;203.43;;;;;;;16.27;41.01;93780.69;4994737;28;20064;-87
2023/03/28 09:11:28;;;;;;;365.73;206.82;;;;;;;16.17;40.87;93769.25;5037372;28;20400;-87
2023/03/28 09:14:10;;;;;;;348.60;195.27;;;;;;;16.18;40.85;93767.25;5009291;28;20037;-89
2023/03/28 09:16:42;;;;;;;251.55;132.00;;;;;;;16.04;38.73;93774.34;5046798;28;20053;-88
2023/03/28 09:19:16;;;;;;;223.10;112.43;;;;;;;15.77;37.44;93767.50;5015512;28;20059;-89
2023/03/28 09:21:41;;;;;;;209.95;103.28;;;;;;;15.70;36.83;93776.09;5031633;28;20076;-89
2023/03/28 09:24:33;;;;;;;196.27;94.00;;;;;;;15.75;37.38;93780.84;5047785;28;20129;-89
2023/03/28 09:27:05;;;;;;;209.70;98.65;;;;;;;15.84;36.82;93775.22;5025205;28;20057;-90
2023/03/28 09:29:32;;;;;;;206.57;95.40;;;;;;;15.93;37.71;93783.22;4992595;28;20042;-89
2023/03/28 09:32:03;;;;;;;211.60;106.03;;;;;;;15.91;37.38;93785.69;4989328;28;20437;-90
2023/03/28 09:34:39;;;;;;;224.20;97.30;;;;;;;15.89;38.72;93785.41;4976885;28;20046;-88
2023/03/28 09:37:28;;;;;;;244.85;114.63;;;;;;;15.83;38.33;93800.97;5003434;28;20924;-89
2023/03/28 09:39:55;;;;;;;222.27;101.18;;;;;;;15.94;37.97;93803.81;4978154;28;20065;-89
2023/03/28 09:42:46;;;;;;;225.32;117.70;;;;;;;16.00;39.15;93801.88;4977645;28;20535;-87
2023/03/28 09:45:34;;;;;;;193.15;103.05;;;;;;;16.00;39.17;93803.84;4994283;28;20518;-88
2023/03/28 09:48:00;;;;;;;237.38;124.65;;;;;;;15.97;39.29;93813.75;5011982;28;20037;-87
2023/03/28 09:50:26;;;;;;;244.73;132.50;;;;;;;15.92;39.85;93810.97;4978487;28;20124;-89
2023/03/28 09:52:51;;;;;;;245.52;132.90;;;;;;;15.99;39.89;93810.53;4971214;28;20041;-87
2023/03/28 09:55:25;;;;;;;222.95;122.00;;;;;;;16.08;39.85;93802.91;5002347;28;20048;-88
2023/03/28 09:58:00;;;;;;;248.63;122.78;;;;;;;16.13;39.84;93804.16;4994161;28;20143;-88
2023/03/28 10:00:25;;;;;;;225.88;123.25;;;;;;;16.15;39.60;93806.41;5013481;28;20046;-89
2023/03/28 10:02:51;;;;;;;242.35;123.43;;;;;;;16.03;39.75;93809.06;5008709;28;20730;-90
2023/03/28 10:05:33;;;;;;;233.40;118.60;;;;;;;16.13;40.15;93803.41;4974533;28;20137;-89
2023/03/28 10:08:02;;;;;;;219.10;115.38;;;;;;;16.10;39.81;93808.63;4975368;28;20339;-89
2023/03/28 10:10:28;;;;;;;209.52;115.50;;;;;;;16.07;39.76;93814.28;4973026;28;20467;-89
2023/03/28 10:13:00;;;;;;;203.95;106.45;;;;;;;16.01;39.84;93818.97;5008817;28;20037;-88
2023/03/28 10:15:33;;;;;;;189.60;96.03;;;;;;;16.03;39.75;93822.69;4991121;28;20049;-89
2023/03/28 10:18:00;;;;;;;201.05;91.53;;;;;;;15.97;39.45;93821.91;5022757;28;20052;-86
2023/03/28 10:20:25;;;;;;;175.65;86.00;;;;;;;16.07;39.05;93814.28;4985473;28;20073;-88
2023/03/28 10:22:53;;;;;;;174.68;85.82;;;;;;;16.02;38.84;93812.28;5008658;28;20431;-88
2023/03/28 10:25:20;;;;;;;171.98;87.60;;;;;;;16.01;39.28;93810.78;4991327;28;20037;-88
2023/03/28 10:27:46;;;;;;;202.13;101.30;;;;;;;16.00;39.19;93815.50;4999231;28;20052;-89
2023/03/28 10:30:25;;;;;;;184.98;93.40;;;;;;;16.10;39.45;93814.06;5010075;28;20072;-89
2023/03/28 10:33:06;;;;;;;182.30;96.28;;;;;;;16.09;39.74;93818.03;4994584;28;20041;-88
2023/03/28 10:35:31;;;;;;;177.57;95.47;;;;;;;16.13;39.91;93814.34;5040016;28;20045;-86
2023/03/28 10:37:57;;;;;;;176.90;92.90;;;;;;;16.10;39.77;93826.97;5009425;28;20048;-89
2023/03/28 10:40:26;;;;;;;183.60;92.80;;;;;;;16.10;40.19;93826.97;5010641;28;20086;-87
2023/03/28 10:42:51;;;;;;;155.10;85.53;;;;;;;16.13;40.08;93827.97;5012937;28;20128;-87
2023/03/28 10:45:35;;;;;;;163.23;84.03;;;;;;;16.08;40.01;93818.50;4992485;28;20061;-87
2023/03/28 10:48:14;;;;;;;142.85;77.50;;;;;;;16.07;39.94;93815.03;5039583;28;20041;-88
2023/03/28 10:50:42;;;;;;;138.77;69.88;;;;;;;16.16;40.35;93814.13;4992618;28;20038;-89
2023/03/28 10:53:38;;;;;;;131.98;68.25;;;;;;;16.19;40.26;93817.84;5011155;28;20045;-88
2023/03/28 10:56:24;;;;;;;103.93;62.55;;;;;;;16.19;40.20;93815.13;5026850;28;20048;-88
2023/03/28 10:59:00;;;;;;;126.45;65.75;;;;;;;16.14;39.82;93822.03;5028382;28;20128;-88
2023/03/28 11:01:43;;;;;;;119.38;63.35;;;;;;;16.09;39.95;93804.38;4989226;28;20046;-88
2023/03/28 11:04:30;;;;;;;128.75;64.93;;;;;;;16.11;40.15;93814.81;5036404;28;20040;-87
2023/03/28 11:07:02;;;;;;;116.63;59.35;;;;;;;16.10;40.10;93824.97;5045402;28;20423;-86
2023/03/28 11:09:50;;;;;;;99.03;56.40;;;;;;;16.07;40.33;93833.38;5001899;28;20076;-86
2023/03/28 11:12:25;;;;;;;101.05;55.28;;;;;;;16.07;40.24;93838.84;4992656;28;20054;-90
2023/03/28 11:15:08;;;;;;;106.57;55.35;;;;;;;16.11;40.38;93831.94;4988888;28;20041;-86
2023/03/28 11:17:58;;;;;;;99.25;51.13;;;;;;;16.24;40.22;93831.50;4967437;28;20080;-89
2023/03/28 11:21:02;;;;;;;81.30;48.60;;;;;;;16.23;40.50;93837.47;5021067;28;20034;-89
2023/03/28 11:23:44;;;;;;;92.80;51.65;;;;;;;16.16;40.14;93835.94;4984515;28;20054;-88